sensor_id;sensor_type;location;lat;lon;timestamp;pressure;altitude;pressure_sealevel;temperature;humidity
61870;BME280;47810;42.264;23.826;2023-09-08T00:02:27;94370.25;;;18.66;68.91
61870;BME280;47810;42.264;23.826;2023-09-08T00:04:53;94371.06;;;18.57;68.28
61870;BME280;47810;42.264;23.826;2023-09-08T00:07:19;94360.91;;;18.51;68.51
61870;BME280;47810;42.264;23.826;2023-09-08T00:09:45;94367.78;;;18.44;67.57
61870;BME280;47810;42.264;23.826;2023-09-08T00:12:12;94353.94;;;18.38;67.60
61870;BME280;47810;42.264;23.826;2023-09-08T00:14:38;94358.34;;;18.39;66.92
61870;BME280;47810;42.264;23.826;2023-09-08T00:17:04;94369.84;;;18.30;67.08
61870;BME280;47810;42.264;23.826;2023-09-08T00:19:30;94358.78;;;18.14;67.23
61870;BME280;47810;42.264;23.826;2023-09-08T00:21:56;94351.69;;;18.03;66.47
61870;BME280;47810;42.264;23.826;2023-09-08T00:24:22;94341.19;;;18.11;65.57
61870;BME280;47810;42.264;23.826;2023-09-08T00:26:48;94352.47;;;18.15;65.45
61870;BME280;47810;42.264;23.826;2023-09-08T00:29:13;94343.56;;;18.05;65.61
61870;BME280;47810;42.264;23.826;2023-09-08T00:31:46;94352.03;;;18.20;64.63
61870;BME280;47810;42.264;23.826;2023-09-08T00:34:11;94335.34;;;18.27;63.31
61870;BME280;47810;42.264;23.826;2023-09-08T00:36:37;94338.91;;;18.37;63.52
61870;BME280;47810;42.264;23.826;2023-09-08T00:39:02;94343.44;;;18.47;63.16
61870;BME280;47810;42.264;23.826;2023-09-08T00:41:29;94342.94;;;18.32;63.61
61870;BME280;47810;42.264;23.826;2023-09-08T00:43:55;94330.50;;;18.52;61.94
61870;BME280;47810;42.264;23.826;2023-09-08T00:46:20;94330.22;;;18.55;62.26
61870;BME280;47810;42.264;23.826;2023-09-08T00:48:46;94336.16;;;18.68;61.49
61870;BME280;47810;42.264;23.826;2023-09-08T00:51:12;94339.81;;;18.67;61.42
61870;BME280;47810;42.264;23.826;2023-09-08T00:53:37;94332.47;;;18.50;63.04
61870;BME280;47810;42.264;23.826;2023-09-08T00:56:03;94332.44;;;18.40;64.49
61870;BME280;47810;42.264;23.826;2023-09-08T00:58:29;94326.66;;;18.35;67.71
61870;BME280;47810;42.264;23.826;2023-09-08T01:00:55;94332.22;;;18.22;69.47
61870;BME280;47810;42.264;23.826;2023-09-08T01:03:24;94327.50;;;18.35;70.80
61870;BME280;47810;42.264;23.826;2023-09-08T01:05:51;94320.00;;;18.29;71.55
61870;BME280;47810;42.264;23.826;2023-09-08T01:08:17;94316.09;;;18.33;72.06
61870;BME280;47810;42.264;23.826;2023-09-08T01:10:43;94316.53;;;18.38;72.29
61870;BME280;47810;42.264;23.826;2023-09-08T01:13:08;94315.56;;;18.09;72.64
61870;BME280;47810;42.264;23.826;2023-09-08T01:15:34;94315.13;;;18.04;73.07
61870;BME280;47810;42.264;23.826;2023-09-08T01:18:00;94307.09;;;18.04;73.09
61870;BME280;47810;42.264;23.826;2023-09-08T01:20:27;94302.97;;;18.21;73.46
61870;BME280;47810;42.264;23.826;2023-09-08T01:25:21;94296.59;;;18.12;74.15
61870;BME280;47810;42.264;23.826;2023-09-08T01:27:48;94294.38;;;18.17;74.32
61870;BME280;47810;42.264;23.826;2023-09-08T01:30:15;94303.28;;;17.97;74.85
61870;BME280;47810;42.264;23.826;2023-09-08T01:32:41;94294.84;;;17.91;74.15
61870;BME280;47810;42.264;23.826;2023-09-08T01:35:07;94288.94;;;17.98;75.16
61870;BME280;47810;42.264;23.826;2023-09-08T01:37:34;94286.09;;;17.89;75.59
61870;BME280;47810;42.264;23.826;2023-09-08T01:39:59;94281.59;;;17.90;76.35
61870;BME280;47810;42.264;23.826;2023-09-08T01:42:25;94287.66;;;17.92;75.59
61870;BME280;47810;42.264;23.826;2023-09-08T01:44:50;94283.44;;;17.89;76.07
61870;BME280;47810;42.264;23.826;2023-09-08T01:47:16;94279.50;;;17.93;75.61
61870;BME280;47810;42.264;23.826;2023-09-08T01:49:42;94276.03;;;18.03;74.04
61870;BME280;47810;42.264;23.826;2023-09-08T01:52:07;94278.63;;;17.83;74.66
61870;BME280;47810;42.264;23.826;2023-09-08T01:54:51;94287.06;;;17.79;74.43
61870;BME280;47810;42.264;23.826;2023-09-08T01:57:17;94272.56;;;17.81;75.46
61870;BME280;47810;42.264;23.826;2023-09-08T01:59:43;94278.16;;;17.78;75.48
61870;BME280;47810;42.264;23.826;2023-09-08T02:02:10;94276.94;;;17.82;75.15
61870;BME280;47810;42.264;23.826;2023-09-08T02:04:36;94276.94;;;17.82;74.42
61870;BME280;47810;42.264;23.826;2023-09-08T02:07:01;94276.03;;;17.72;74.84
61870;BME280;47810;42.264;23.826;2023-09-08T02:09:32;94276.09;;;17.61;75.93
61870;BME280;47810;42.264;23.826;2023-09-08T02:11:58;94280.97;;;17.56;76.71
61870;BME280;47810;42.264;23.826;2023-09-08T02:14:24;94278.03;;;17.59;77.04
61870;BME280;47810;42.264;23.826;2023-09-08T02:16:49;94278.28;;;17.56;77.02
61870;BME280;47810;42.264;23.826;2023-09-08T02:19:15;94274.22;;;17.52;76.90
61870;BME280;47810;42.264;23.826;2023-09-08T02:21:40;94277.91;;;17.39;77.49
61870;BME280;47810;42.264;23.826;2023-09-08T02:24:06;94268.31;;;17.27;77.95
61870;BME280;47810;42.264;23.826;2023-09-08T02:26:32;94264.41;;;17.31;78.05
61870;BME280;47810;42.264;23.826;2023-09-08T02:28:59;94262.97;;;17.27;78.08
61870;BME280;47810;42.264;23.826;2023-09-08T02:31:25;94262.91;;;17.17;78.53
61870;BME280;47810;42.264;23.826;2023-09-08T02:33:51;94262.91;;;17.17;78.84
61870;BME280;47810;42.264;23.826;2023-09-08T02:36:17;94265.44;;;17.19;78.58
61870;BME280;47810;42.264;23.826;2023-09-08T02:38:42;94261.78;;;17.20;79.16
61870;BME280;47810;42.264;23.826;2023-09-08T02:41:08;94266.16;;;17.21;79.18
61870;BME280;47810;42.264;23.826;2023-09-08T02:43:33;94265.69;;;17.16;79.34
61870;BME280;47810;42.264;23.826;2023-09-08T02:45:59;94268.16;;;17.08;79.42
61870;BME280;47810;42.264;23.826;2023-09-08T02:48:24;94267.56;;;17.04;79.55
61870;BME280;47810;42.264;23.826;2023-09-08T02:50:50;94268.16;;;17.08;79.15
61870;BME280;47810;42.264;23.826;2023-09-08T02:53:15;94263.00;;;16.95;78.78
61870;BME280;47810;42.264;23.826;2023-09-08T02:55:41;94263.22;;;16.82;78.78
61870;BME280;47810;42.264;23.826;2023-09-08T02:58:06;94263.22;;;16.82;79.19
61870;BME280;47810;42.264;23.826;2023-09-08T03:00:32;94267.91;;;16.79;78.53
61870;BME280;47810;42.264;23.826;2023-09-08T03:02:57;94266.59;;;16.73;79.35
61870;BME280;47810;42.264;23.826;2023-09-08T03:05:23;94256.88;;;16.72;79.66
61870;BME280;47810;42.264;23.826;2023-09-08T03:07:48;94262.28;;;16.61;80.01
61870;BME280;47810;42.264;23.826;2023-09-08T03:10:14;94246.03;;;16.64;80.09
61870;BME280;47810;42.264;23.826;2023-09-08T03:12:41;94253.72;;;16.46;79.19
61870;BME280;47810;42.264;23.826;2023-09-08T03:15:07;94255.28;;;16.48;78.70
61870;BME280;47810;42.264;23.826;2023-09-08T03:17:33;94252.31;;;16.63;77.94
61870;BME280;47810;42.264;23.826;2023-09-08T03:19:58;94258.00;;;16.26;77.04
61870;BME280;47810;42.264;23.826;2023-09-08T03:22:24;94254.47;;;16.37;77.55
61870;BME280;47810;42.264;23.826;2023-09-08T03:24:50;94251.88;;;16.46;75.35
61870;BME280;47810;42.264;23.826;2023-09-08T03:27:15;94247.84;;;16.31;74.93
61870;BME280;47810;42.264;23.826;2023-09-08T03:29:41;94253.81;;;16.12;74.99
61870;BME280;47810;42.264;23.826;2023-09-08T03:32:06;94253.41;;;16.28;74.25
61870;BME280;47810;42.264;23.826;2023-09-08T03:34:32;94252.75;;;15.92;74.57
61870;BME280;47810;42.264;23.826;2023-09-08T03:36:57;94245.59;;;15.81;74.96
61870;BME280;47810;42.264;23.826;2023-09-08T03:39:23;94253.00;;;15.67;74.85
61870;BME280;47810;42.264;23.826;2023-09-08T03:41:48;94251.78;;;15.71;75.08
61870;BME280;47810;42.264;23.826;2023-09-08T03:44:14;94251.31;;;15.77;74.49
61870;BME280;47810;42.264;23.826;2023-09-08T03:46:39;94260.63;;;15.71;75.66
61870;BME280;47810;42.264;23.826;2023-09-08T03:49:05;94262.66;;;15.79;77.23
61870;BME280;47810;42.264;23.826;2023-09-08T03:51:31;94254.31;;;15.83;77.42
61870;BME280;47810;42.264;23.826;2023-09-08T03:53:57;94257.59;;;15.87;77.49
61870;BME280;47810;42.264;23.826;2023-09-08T03:56:22;94264.59;;;15.99;77.61
61870;BME280;47810;42.264;23.826;2023-09-08T03:58:49;94268.47;;;15.95;77.59
61870;BME280;47810;42.264;23.826;2023-09-08T04:01:14;94263.13;;;15.95;77.52
61870;BME280;47810;42.264;23.826;2023-09-08T04:03:40;94267.84;;;15.92;76.86
61870;BME280;47810;42.264;23.826;2023-09-08T04:06:06;94268.72;;;16.03;76.54
61870;BME280;47810;42.264;23.826;2023-09-08T04:08:31;94270.16;;;15.96;76.74
61870;BME280;47810;42.264;23.826;2023-09-08T04:10:57;94273.78;;;15.95;77.73
61870;BME280;47810;42.264;23.826;2023-09-08T04:13:22;94278.88;;;15.98;77.48
61870;BME280;47810;42.264;23.826;2023-09-08T04:15:48;94276.22;;;15.87;78.16
61870;BME280;47810;42.264;23.826;2023-09-08T04:18:13;94269.47;;;15.83;78.38
61870;BME280;47810;42.264;23.826;2023-09-08T04:20:39;94269.19;;;15.64;77.87
61870;BME280;47810;42.264;23.826;2023-09-08T04:23:04;94270.88;;;15.65;78.41
61870;BME280;47810;42.264;23.826;2023-09-08T04:25:30;94270.19;;;15.74;78.45
61870;BME280;47810;42.264;23.826;2023-09-08T04:27:56;94271.63;;;15.67;78.61
61870;BME280;47810;42.264;23.826;2023-09-08T04:30:21;94281.78;;;15.73;77.97
61870;BME280;47810;42.264;23.826;2023-09-08T04:32:47;94279.50;;;15.68;77.01
61870;BME280;47810;42.264;23.826;2023-09-08T04:35:12;94279.09;;;15.95;76.10
61870;BME280;47810;42.264;23.826;2023-09-08T04:37:38;94288.81;;;15.85;75.44
61870;BME280;47810;42.264;23.826;2023-09-08T04:40:04;94292.94;;;15.89;76.05
61870;BME280;47810;42.264;23.826;2023-09-08T04:42:30;94294.50;;;15.80;76.06
61870;BME280;47810;42.264;23.826;2023-09-08T04:44:57;94305.75;;;15.73;76.20
61870;BME280;47810;42.264;23.826;2023-09-08T04:47:22;94309.81;;;15.66;77.53
61870;BME280;47810;42.264;23.826;2023-09-08T04:49:48;94304.28;;;15.69;78.44
61870;BME280;47810;42.264;23.826;2023-09-08T04:52:13;94308.91;;;15.89;77.60
61870;BME280;47810;42.264;23.826;2023-09-08T04:54:40;94311.34;;;15.92;77.39
61870;BME280;47810;42.264;23.826;2023-09-08T04:57:05;94299.69;;;15.82;79.23
61870;BME280;47810;42.264;23.826;2023-09-08T04:59:32;94303.44;;;15.68;78.09
61870;BME280;47810;42.264;23.826;2023-09-08T05:01:58;94300.34;;;15.39;78.95
61870;BME280;47810;42.264;23.826;2023-09-08T05:04:23;94300.63;;;15.58;79.28
61870;BME280;47810;42.264;23.826;2023-09-08T05:06:49;94299.88;;;15.45;79.25
61870;BME280;47810;42.264;23.826;2023-09-08T05:09:14;94298.09;;;15.57;78.76
61870;BME280;47810;42.264;23.826;2023-09-08T05:11:40;94293.44;;;15.36;78.74
61870;BME280;47810;42.264;23.826;2023-09-08T05:14:06;94302.28;;;15.26;78.99
61870;BME280;47810;42.264;23.826;2023-09-08T05:16:32;94296.75;;;15.51;78.64
61870;BME280;47810;42.264;23.826;2023-09-08T05:19:10;94298.75;;;15.83;79.19
61870;BME280;47810;42.264;23.826;2023-09-08T05:21:36;94294.63;;;15.90;78.58
61870;BME280;47810;42.264;23.826;2023-09-08T05:24:02;94306.00;;;15.81;77.89
61870;BME280;47810;42.264;23.826;2023-09-08T05:26:28;94300.94;;;15.89;78.22
61870;BME280;47810;42.264;23.826;2023-09-08T05:28:54;94299.34;;;15.98;78.72
61870;BME280;47810;42.264;23.826;2023-09-08T05:31:20;94298.84;;;16.04;78.29
61870;BME280;47810;42.264;23.826;2023-09-08T05:33:45;94307.91;;;16.35;78.03
61870;BME280;47810;42.264;23.826;2023-09-08T05:36:11;94311.78;;;16.31;78.83
61870;BME280;47810;42.264;23.826;2023-09-08T05:38:37;94316.72;;;16.47;79.74
61870;BME280;47810;42.264;23.826;2023-09-08T05:41:02;94319.50;;;16.45;79.42
61870;BME280;47810;42.264;23.826;2023-09-08T05:43:28;94319.00;;;16.51;78.70
61870;BME280;47810;42.264;23.826;2023-09-08T05:45:54;94320.00;;;16.50;79.33
61870;BME280;47810;42.264;23.826;2023-09-08T05:48:20;94329.81;;;16.93;81.84
61870;BME280;47810;42.264;23.826;2023-09-08T05:50:46;94321.13;;;16.69;81.38
61870;BME280;47810;42.264;23.826;2023-09-08T05:53:11;94327.50;;;16.57;80.29
61870;BME280;47810;42.264;23.826;2023-09-08T05:55:37;94327.34;;;16.58;79.78
61870;BME280;47810;42.264;23.826;2023-09-08T05:58:02;94327.47;;;16.79;81.32
61870;BME280;47810;42.264;23.826;2023-09-08T06:00:28;94316.25;;;16.85;81.73
61870;BME280;47810;42.264;23.826;2023-09-08T06:02:54;94323.97;;;16.99;81.62
61870;BME280;47810;42.264;23.826;2023-09-08T06:05:20;94326.94;;;16.85;79.77
61870;BME280;47810;42.264;23.826;2023-09-08T06:07:45;94323.72;;;17.03;82.85
61870;BME280;47810;42.264;23.826;2023-09-08T06:10:11;94319.31;;;17.13;79.25
61870;BME280;47810;42.264;23.826;2023-09-08T06:12:36;94329.19;;;17.01;79.88
61870;BME280;47810;42.264;23.826;2023-09-08T06:15:02;94332.47;;;17.05;79.32
61870;BME280;47810;42.264;23.826;2023-09-08T06:17:28;94321.72;;;17.16;80.63
61870;BME280;47810;42.264;23.826;2023-09-08T06:19:54;94331.69;;;17.14;78.97
61870;BME280;47810;42.264;23.826;2023-09-08T06:22:19;94325.88;;;17.09;79.01
61870;BME280;47810;42.264;23.826;2023-09-08T06:24:45;94337.72;;;17.27;78.67
61870;BME280;47810;42.264;23.826;2023-09-08T06:27:10;94330.47;;;17.39;78.73
61870;BME280;47810;42.264;23.826;2023-09-08T06:29:37;94334.78;;;17.51;78.85
61870;BME280;47810;42.264;23.826;2023-09-08T06:32:04;94337.03;;;17.56;78.27
61870;BME280;47810;42.264;23.826;2023-09-08T06:34:30;94334.56;;;17.64;76.56
61870;BME280;47810;42.264;23.826;2023-09-08T06:36:56;94344.09;;;17.57;77.14
61870;BME280;47810;42.264;23.826;2023-09-08T06:39:22;94344.22;;;17.76;76.35
61870;BME280;47810;42.264;23.826;2023-09-08T06:41:47;94344.22;;;17.76;77.89
61870;BME280;47810;42.264;23.826;2023-09-08T06:44:13;94346.66;;;18.10;80.17
61870;BME280;47810;42.264;23.826;2023-09-08T06:46:38;94349.44;;;17.99;77.17
61870;BME280;47810;42.264;23.826;2023-09-08T06:49:04;94352.97;;;18.30;77.07
61870;BME280;47810;42.264;23.826;2023-09-08T06:51:30;94353.19;;;18.17;76.02
61870;BME280;47810;42.264;23.826;2023-09-08T06:53:55;94360.91;;;18.20;76.87
61870;BME280;47810;42.264;23.826;2023-09-08T06:56:21;94364.22;;;18.33;75.42
61870;BME280;47810;42.264;23.826;2023-09-08T06:58:47;94356.59;;;18.69;69.48
61870;BME280;47810;42.264;23.826;2023-09-08T07:01:13;94358.47;;;18.78;65.40
61870;BME280;47810;42.264;23.826;2023-09-08T07:03:38;94363.28;;;18.84;66.65
61870;BME280;47810;42.264;23.826;2023-09-08T07:06:04;94358.22;;;18.91;67.66
61870;BME280;47810;42.264;23.826;2023-09-08T07:08:29;94365.38;;;18.91;67.71
61870;BME280;47810;42.264;23.826;2023-09-08T07:10:55;94367.66;;;18.85;71.45
61870;BME280;47810;42.264;23.826;2023-09-08T07:13:20;94366.69;;;19.06;74.40
61870;BME280;47810;42.264;23.826;2023-09-08T07:15:46;94369.94;;;19.19;73.04
61870;BME280;47810;42.264;23.826;2023-09-08T07:18:12;94366.69;;;19.25;72.29
61870;BME280;47810;42.264;23.826;2023-09-08T07:20:37;94358.53;;;19.56;65.78
61870;BME280;47810;42.264;23.826;2023-09-08T07:23:03;94361.91;;;19.58;66.09
61870;BME280;47810;42.264;23.826;2023-09-08T07:25:28;94360.50;;;19.73;64.08
61870;BME280;47810;42.264;23.826;2023-09-08T07:27:54;94370.06;;;19.95;62.81
61870;BME280;47810;42.264;23.826;2023-09-08T07:30:20;94358.47;;;20.05;59.95
61870;BME280;47810;42.264;23.826;2023-09-08T07:32:46;94367.94;;;19.99;61.39
61870;BME280;47810;42.264;23.826;2023-09-08T07:35:11;94370.91;;;19.96;58.66
61870;BME280;47810;42.264;23.826;2023-09-08T07:37:40;94373.19;;;19.91;58.71
61870;BME280;47810;42.264;23.826;2023-09-08T07:40:07;94371.50;;;19.80;59.25
61870;BME280;47810;42.264;23.826;2023-09-08T07:42:33;94370.09;;;19.76;59.66
61870;BME280;47810;42.264;23.826;2023-09-08T07:44:58;94375.88;;;19.91;58.92
61870;BME280;47810;42.264;23.826;2023-09-08T07:47:24;94374.88;;;19.92;58.32
61870;BME280;47810;42.264;23.826;2023-09-08T07:49:50;94370.34;;;20.02;57.54
61870;BME280;47810;42.264;23.826;2023-09-08T07:52:15;94375.69;;;20.02;57.12
61870;BME280;47810;42.264;23.826;2023-09-08T07:54:41;94372.56;;;20.16;57.74
61870;BME280;47810;42.264;23.826;2023-09-08T07:57:06;94375.91;;;20.28;57.46
61870;BME280;47810;42.264;23.826;2023-09-08T07:59:32;94373.63;;;20.33;57.95
61870;BME280;47810;42.264;23.826;2023-09-08T08:01:58;94368.50;;;20.50;57.48
61870;BME280;47810;42.264;23.826;2023-09-08T08:04:23;94368.63;;;20.85;57.92
61870;BME280;47810;42.264;23.826;2023-09-08T08:06:50;94359.06;;;21.18;56.55
61870;BME280;47810;42.264;23.826;2023-09-08T08:09:16;94372.13;;;21.13;56.73
61870;BME280;47810;42.264;23.826;2023-09-08T08:11:41;94367.19;;;21.36;56.03
61870;BME280;47810;42.264;23.826;2023-09-08T08:14:08;94369.34;;;21.69;54.77
61870;BME280;47810;42.264;23.826;2023-09-08T08:16:33;94364.16;;;21.93;54.67
61870;BME280;47810;42.264;23.826;2023-09-08T08:18:59;94359.09;;;21.90;51.77
61870;BME280;47810;42.264;23.826;2023-09-08T08:21:25;94353.63;;;22.00;53.33
61870;BME280;47810;42.264;23.826;2023-09-08T08:23:51;94357.34;;;22.25;54.45
61870;BME280;47810;42.264;23.826;2023-09-08T08:26:16;94358.69;;;22.55;50.83
61870;BME280;47810;42.264;23.826;2023-09-08T08:28:43;94359.53;;;22.55;47.79
61870;BME280;47810;42.264;23.826;2023-09-08T08:31:08;94361.88;;;22.50;48.22
61870;BME280;47810;42.264;23.826;2023-09-08T08:33:34;94352.16;;;22.66;47.37
61870;BME280;47810;42.264;23.826;2023-09-08T08:35:59;94352.56;;;22.79;50.44
61870;BME280;47810;42.264;23.826;2023-09-08T08:38:25;94346.66;;;23.10;49.93
61870;BME280;47810;42.264;23.826;2023-09-08T08:40:51;94343.84;;;23.28;49.91
61870;BME280;47810;42.264;23.826;2023-09-08T08:43:16;94346.34;;;23.29;48.83
61870;BME280;47810;42.264;23.826;2023-09-08T08:45:42;94347.03;;;23.39;48.06
61870;BME280;47810;42.264;23.826;2023-09-08T08:48:08;94352.75;;;23.36;46.33
61870;BME280;47810;42.264;23.826;2023-09-08T08:50:34;94364.84;;;23.24;45.39
61870;BME280;47810;42.264;23.826;2023-09-08T08:53:00;94349.53;;;22.82;43.86
61870;BME280;47810;42.264;23.826;2023-09-08T08:55:27;94359.66;;;22.88;44.57
61870;BME280;47810;42.264;23.826;2023-09-08T08:57:54;94352.28;;;22.90;45.00
61870;BME280;47810;42.264;23.826;2023-09-08T09:00:20;94346.84;;;23.24;44.92
61870;BME280;47810;42.264;23.826;2023-09-08T09:02:46;94355.81;;;23.58;43.29
61870;BME280;47810;42.264;23.826;2023-09-08T09:05:14;94356.88;;;23.81;42.38
61870;BME280;47810;42.264;23.826;2023-09-08T09:07:43;94351.47;;;23.81;40.75
61870;BME280;47810;42.264;23.826;2023-09-08T09:10:09;94348.59;;;23.91;41.66
61870;BME280;47810;42.264;23.826;2023-09-08T09:12:38;94347.41;;;24.10;45.28
61870;BME280;47810;42.264;23.826;2023-09-08T09:15:04;94354.81;;;24.40;44.53
61870;BME280;47810;42.264;23.826;2023-09-08T09:17:33;94351.09;;;24.42;41.23
61870;BME280;47810;42.264;23.826;2023-09-08T09:20:18;94349.19;;;24.58;43.04
61870;BME280;47810;42.264;23.826;2023-09-08T09:22:49;94350.34;;;24.72;40.48
61870;BME280;47810;42.264;23.826;2023-09-08T09:25:25;94345.94;;;24.79;43.36
61870;BME280;47810;42.264;23.826;2023-09-08T09:27:51;94345.66;;;24.97;40.62
61870;BME280;47810;42.264;23.826;2023-09-08T09:30:17;94346.44;;;25.22;41.83
61870;BME280;47810;42.264;23.826;2023-09-08T09:32:44;94342.63;;;25.00;40.84
61870;BME280;47810;42.264;23.826;2023-09-08T09:35:09;94335.84;;;24.65;40.26
61870;BME280;47810;42.264;23.826;2023-09-08T09:37:35;94335.75;;;24.90;42.79
61870;BME280;47810;42.264;23.826;2023-09-08T09:40:01;94345.47;;;25.15;43.06
61870;BME280;47810;42.264;23.826;2023-09-08T09:42:27;94334.56;;;25.31;39.18
61870;BME280;47810;42.264;23.826;2023-09-08T09:44:53;94335.13;;;25.50;39.64
61870;BME280;47810;42.264;23.826;2023-09-08T09:47:20;94334.91;;;25.51;39.80
61870;BME280;47810;42.264;23.826;2023-09-08T09:49:46;94328.09;;;25.64;39.39
61870;BME280;47810;42.264;23.826;2023-09-08T09:52:12;94332.06;;;25.53;38.79
61870;BME280;47810;42.264;23.826;2023-09-08T10:21:09;94299.69;;;24.74;39.62
61870;BME280;47810;42.264;23.826;2023-09-08T10:23:42;94299.84;;;25.20;39.95
61870;BME280;47810;42.264;23.826;2023-09-08T10:26:09;94294.00;;;25.54;38.36
61870;BME280;47810;42.264;23.826;2023-09-08T10:28:36;94297.03;;;25.74;38.38
61870;BME280;47810;42.264;23.826;2023-09-08T10:31:01;94288.03;;;26.05;38.92
61870;BME280;47810;42.264;23.826;2023-09-08T10:33:28;94296.63;;;26.38;37.11
61870;BME280;47810;42.264;23.826;2023-09-08T10:35:54;94295.28;;;26.57;38.30
61870;BME280;47810;42.264;23.826;2023-09-08T10:40:52;94296.91;;;26.29;37.61
61870;BME280;47810;42.264;23.826;2023-09-08T10:43:18;94292.28;;;25.85;37.65
61870;BME280;47810;42.264;23.826;2023-09-08T10:45:45;94279.97;;;25.97;37.21
61870;BME280;47810;42.264;23.826;2023-09-08T10:48:11;94293.47;;;25.82;38.60
61870;BME280;47810;42.264;23.826;2023-09-08T10:50:39;94282.81;;;25.81;38.90
61870;BME280;47810;42.264;23.826;2023-09-08T10:53:06;94277.03;;;25.46;37.62
61870;BME280;47810;42.264;23.826;2023-09-08T10:55:52;94283.16;;;25.40;38.12
61870;BME280;47810;42.264;23.826;2023-09-08T10:58:19;94279.06;;;25.44;38.21
61870;BME280;47810;42.264;23.826;2023-09-08T11:00:50;94276.53;;;25.65;39.71
61870;BME280;47810;42.264;23.826;2023-09-08T11:03:25;94280.19;;;26.10;37.26
61870;BME280;47810;42.264;23.826;2023-09-08T11:05:51;94282.94;;;26.40;37.82
61870;BME280;47810;42.264;23.826;2023-09-08T11:08:17;94281.28;;;26.68;38.06
61870;BME280;47810;42.264;23.826;2023-09-08T11:10:44;94271.91;;;26.86;36.25
61870;BME280;47810;42.264;23.826;2023-09-08T11:13:10;94277.97;;;26.88;38.60
61870;BME280;47810;42.264;23.826;2023-09-08T11:15:36;94278.13;;;27.01;37.10
61870;BME280;47810;42.264;23.826;2023-09-08T11:18:05;94268.78;;;27.04;38.02
61870;BME280;47810;42.264;23.826;2023-09-08T11:20:32;94274.22;;;26.89;38.72
61870;BME280;47810;42.264;23.826;2023-09-08T11:22:57;94273.16;;;27.05;36.43
61870;BME280;47810;42.264;23.826;2023-09-08T11:25:23;94268.06;;;26.95;37.15
61870;BME280;47810;42.264;23.826;2023-09-08T11:27:48;94254.59;;;26.87;37.97
61870;BME280;47810;42.264;23.826;2023-09-08T11:30:15;94256.16;;;26.96;40.68
61870;BME280;47810;42.264;23.826;2023-09-08T11:32:41;94250.63;;;27.19;37.09
61870;BME280;47810;42.264;23.826;2023-09-08T11:35:07;94246.31;;;27.25;38.71
61870;BME280;47810;42.264;23.826;2023-09-08T11:37:37;94250.06;;;27.24;37.75
61870;BME280;47810;42.264;23.826;2023-09-08T11:40:04;94242.44;;;27.34;38.18
61870;BME280;47810;42.264;23.826;2023-09-08T11:42:34;94247.75;;;27.42;37.87
61870;BME280;47810;42.264;23.826;2023-09-08T11:45:00;94240.13;;;27.31;36.31
61870;BME280;47810;42.264;23.826;2023-09-08T11:47:25;94225.00;;;27.22;37.17
61870;BME280;47810;42.264;23.826;2023-09-08T11:49:52;94239.50;;;26.78;37.92
61870;BME280;47810;42.264;23.826;2023-09-08T11:52:17;94233.13;;;26.70;38.22
61870;BME280;47810;42.264;23.826;2023-09-08T11:54:43;94235.59;;;26.65;38.04
61870;BME280;47810;42.264;23.826;2023-09-08T11:57:09;94237.25;;;26.66;37.65
61870;BME280;47810;42.264;23.826;2023-09-08T11:59:37;94236.16;;;26.46;39.21
61870;BME280;47810;42.264;23.826;2023-09-08T12:02:03;94236.44;;;26.66;39.08
61870;BME280;47810;42.264;23.826;2023-09-08T12:04:29;94231.47;;;27.06;38.32
61870;BME280;47810;42.264;23.826;2023-09-08T12:06:54;94224.00;;;27.08;38.94
61870;BME280;47810;42.264;23.826;2023-09-08T12:34:53;94206.09;;;26.92;37.32
61870;BME280;47810;42.264;23.826;2023-09-08T12:37:20;94208.59;;;26.57;38.86
61870;BME280;47810;42.264;23.826;2023-09-08T12:39:46;94200.47;;;26.57;38.77
61870;BME280;47810;42.264;23.826;2023-09-08T12:42:11;94202.63;;;26.62;38.14
61870;BME280;47810;42.264;23.826;2023-09-08T12:44:37;94202.81;;;26.60;39.95
61870;BME280;47810;42.264;23.826;2023-09-08T12:47:03;94199.34;;;26.66;39.18
61870;BME280;47810;42.264;23.826;2023-09-08T12:49:28;94192.28;;;26.87;37.93
61870;BME280;47810;42.264;23.826;2023-09-08T12:51:54;94195.41;;;26.84;38.99
61870;BME280;47810;42.264;23.826;2023-09-08T12:54:19;94196.47;;;26.89;38.40
61870;BME280;47810;42.264;23.826;2023-09-08T12:56:45;94197.00;;;26.78;38.55
61870;BME280;47810;42.264;23.826;2023-09-08T12:59:10;94201.66;;;26.84;38.51
61870;BME280;47810;42.264;23.826;2023-09-08T13:01:36;94188.69;;;27.01;39.94
61870;BME280;47810;42.264;23.826;2023-09-08T13:04:02;94184.94;;;27.02;37.98
61870;BME280;47810;42.264;23.826;2023-09-08T13:06:28;94192.53;;;26.92;37.35
61870;BME280;47810;42.264;23.826;2023-09-08T13:08:53;94188.41;;;26.75;40.18
61870;BME280;47810;42.264;23.826;2023-09-08T13:11:21;94193.84;;;26.96;38.76
61870;BME280;47810;42.264;23.826;2023-09-08T13:13:46;94185.16;;;27.01;38.86
61870;BME280;47810;42.264;23.826;2023-09-08T13:16:12;94184.81;;;26.89;38.13
61870;BME280;47810;42.264;23.826;2023-09-08T13:18:38;94177.19;;;26.78;39.48
61870;BME280;47810;42.264;23.826;2023-09-08T13:21:05;94181.03;;;26.68;38.63
61870;BME280;47810;42.264;23.826;2023-09-08T13:23:34;94183.38;;;26.57;37.19
61870;BME280;47810;42.264;23.826;2023-09-08T13:26:00;94186.69;;;26.52;37.99
61870;BME280;47810;42.264;23.826;2023-09-08T13:28:26;94189.66;;;26.42;38.32
61870;BME280;47810;42.264;23.826;2023-09-08T13:30:51;94190.41;;;26.51;38.94
61870;BME280;47810;42.264;23.826;2023-09-08T13:33:17;94177.31;;;26.55;40.53
61870;BME280;47810;42.264;23.826;2023-09-08T13:35:43;94185.94;;;26.58;37.70
61870;BME280;47810;42.264;23.826;2023-09-08T13:38:08;94181.69;;;26.41;38.59
61870;BME280;47810;42.264;23.826;2023-09-08T13:40:34;94175.84;;;26.22;39.79
61870;BME280;47810;42.264;23.826;2023-09-08T13:43:00;94181.06;;;26.39;38.78